sensor_id;sensor_type;location;lat;lon;timestamp;pressure;altitude;pressure_sealevel;temperature;humidity
20017;BME280;10169;42.664;23.610;2023-07-31T00:01:36;95022.25;;;19.73;100.00
20017;BME280;10169;42.664;23.610;2023-07-31T00:03:36;95021.56;;;19.81;100.00
20017;BME280;10169;42.664;23.610;2023-07-31T00:05:37;95017.75;;;19.82;100.00
20017;BME280;10169;42.664;23.610;2023-07-31T00:07:37;95005.31;;;19.59;100.00
20017;BME280;10169;42.664;23.610;2023-07-31T00:09:37;95014.09;;;19.51;100.00
20017;BME280;10169;42.664;23.610;2023-07-31T00:11:38;95024.50;;;19.44;100.00
20017;BME280;10169;42.664;23.610;2023-07-31T00:13:38;95020.00;;;19.39;100.00
20017;BME280;10169;42.664;23.610;2023-07-31T00:15:38;95029.41;;;19.42;100.00
20017;BME280;10169;42.664;23.610;2023-07-31T00:17:38;95024.63;;;19.39;100.00
20017;BME280;10169;42.664;23.610;2023-07-31T00:19:39;95022.53;;;19.36;100.00
20017;BME280;10169;42.664;23.610;2023-07-31T00:21:39;95034.38;;;19.48;100.00
20017;BME280;10169;42.664;23.610;2023-07-31T00:23:39;95034.28;;;19.40;100.00
20017;BME280;10169;42.664;23.610;2023-07-31T00:25:40;95031.69;;;19.35;100.00
20017;BME280;10169;42.664;23.610;2023-07-31T00:27:40;95039.25;;;19.33;100.00
20017;BME280;10169;42.664;23.610;2023-07-31T00:29:44;95037.19;;;19.16;100.00
20017;BME280;10169;42.664;23.610;2023-07-31T00:31:44;95034.34;;;19.08;100.00
20017;BME280;10169;42.664;23.610;2023-07-31T00:33:44;95032.78;;;19.07;100.00
20017;BME280;10169;42.664;23.610;2023-07-31T00:35:45;95030.97;;;19.29;100.00
20017;BME280;10169;42.664;23.610;2023-07-31T00:37:45;95027.91;;;19.36;100.00
20017;BME280;10169;42.664;23.610;2023-07-31T00:39:45;95017.41;;;19.21;100.00
20017;BME280;10169;42.664;23.610;2023-07-31T00:41:46;95015.91;;;19.15;100.00
20017;BME280;10169;42.664;23.610;2023-07-31T00:43:46;95009.06;;;19.36;100.00
20017;BME280;10169;42.664;23.610;2023-07-31T00:45:46;95010.44;;;19.47;100.00
20017;BME280;10169;42.664;23.610;2023-07-31T00:47:46;95001.81;;;19.59;100.00
20017;BME280;10169;42.664;23.610;2023-07-31T00:49:47;94992.75;;;19.55;100.00
20017;BME280;10169;42.664;23.610;2023-07-31T00:51:48;94977.59;;;19.45;100.00
20017;BME280;10169;42.664;23.610;2023-07-31T00:53:48;94977.19;;;19.51;100.00
20017;BME280;10169;42.664;23.610;2023-07-31T00:55:49;94972.88;;;19.50;100.00
20017;BME280;10169;42.664;23.610;2023-07-31T00:57:49;94973.09;;;19.54;100.00
20017;BME280;10169;42.664;23.610;2023-07-31T00:59:51;94976.28;;;19.56;100.00
20017;BME280;10169;42.664;23.610;2023-07-31T01:01:52;94975.41;;;19.47;100.00
20017;BME280;10169;42.664;23.610;2023-07-31T01:03:52;94975.97;;;19.44;100.00
20017;BME280;10169;42.664;23.610;2023-07-31T01:08:15;94988.28;;;19.36;100.00
20017;BME280;10169;42.664;23.610;2023-07-31T01:10:20;94999.53;;;19.52;100.00
20017;BME280;10169;42.664;23.610;2023-07-31T01:12:21;94995.13;;;19.56;100.00
20017;BME280;10169;42.664;23.610;2023-07-31T01:14:23;94985.75;;;19.53;100.00
20017;BME280;10169;42.664;23.610;2023-07-31T01:16:25;94978.09;;;19.47;100.00
20017;BME280;10169;42.664;23.610;2023-07-31T01:18:25;94965.91;;;19.22;100.00
20017;BME280;10169;42.664;23.610;2023-07-31T01:20:26;94958.84;;;19.13;100.00
20017;BME280;10169;42.664;23.610;2023-07-31T01:24:54;94960.31;;;19.46;100.00
20017;BME280;10169;42.664;23.610;2023-07-31T01:26:56;94959.94;;;19.39;100.00
20017;BME280;10169;42.664;23.610;2023-07-31T01:29:01;94962.13;;;19.37;100.00
20017;BME280;10169;42.664;23.610;2023-07-31T01:31:03;94959.63;;;19.27;100.00
20017;BME280;10169;42.664;23.610;2023-07-31T01:33:07;94960.22;;;19.24;100.00
20017;BME280;10169;42.664;23.610;2023-07-31T01:35:08;94962.66;;;19.12;100.00
20017;BME280;10169;42.664;23.610;2023-07-31T01:37:09;94962.84;;;19.15;100.00
20017;BME280;10169;42.664;23.610;2023-07-31T01:39:09;94958.63;;;19.23;100.00
20017;BME280;10169;42.664;23.610;2023-07-31T01:41:09;94961.34;;;19.23;100.00
20017;BME280;10169;42.664;23.610;2023-07-31T01:43:10;94967.22;;;19.38;100.00
20017;BME280;10169;42.664;23.610;2023-07-31T01:45:10;94964.31;;;19.35;100.00
20017;BME280;10169;42.664;23.610;2023-07-31T01:47:10;94962.00;;;19.28;100.00
20017;BME280;10169;42.664;23.610;2023-07-31T01:49:11;94953.25;;;19.36;100.00
20017;BME280;10169;42.664;23.610;2023-07-31T01:51:11;94961.91;;;19.47;100.00
20017;BME280;10169;42.664;23.610;2023-07-31T01:53:11;94949.53;;;19.46;100.00
20017;BME280;10169;42.664;23.610;2023-07-31T01:55:13;94934.38;;;19.50;100.00
20017;BME280;10169;42.664;23.610;2023-07-31T01:57:13;94934.06;;;19.51;100.00
20017;BME280;10169;42.664;23.610;2023-07-31T01:59:13;94939.63;;;19.55;100.00
20017;BME280;10169;42.664;23.610;2023-07-31T02:01:14;94942.03;;;19.57;100.00
20017;BME280;10169;42.664;23.610;2023-07-31T02:03:14;94951.03;;;19.52;100.00
20017;BME280;10169;42.664;23.610;2023-07-31T02:05:15;94951.72;;;19.44;100.00
20017;BME280;10169;42.664;23.610;2023-07-31T02:07:15;94955.44;;;19.34;100.00
20017;BME280;10169;42.664;23.610;2023-07-31T02:09:15;94963.13;;;19.27;100.00
20017;BME280;10169;42.664;23.610;2023-07-31T02:11:15;94960.94;;;19.16;100.00
20017;BME280;10169;42.664;23.610;2023-07-31T02:13:16;94966.25;;;19.07;100.00
20017;BME280;10169;42.664;23.610;2023-07-31T02:15:16;94971.13;;;19.05;100.00
20017;BME280;10169;42.664;23.610;2023-07-31T02:17:16;94976.00;;;19.03;100.00
20017;BME280;10169;42.664;23.610;2023-07-31T02:19:16;94982.09;;;18.95;100.00
20017;BME280;10169;42.664;23.610;2023-07-31T02:21:17;94981.41;;;18.90;100.00
20017;BME280;10169;42.664;23.610;2023-07-31T02:23:17;94991.16;;;18.86;100.00
20017;BME280;10169;42.664;23.610;2023-07-31T02:25:18;94984.28;;;18.79;100.00
20017;BME280;10169;42.664;23.610;2023-07-31T02:27:18;94995.84;;;18.80;100.00
20017;BME280;10169;42.664;23.610;2023-07-31T02:29:19;95000.94;;;18.81;100.00
20017;BME280;10169;42.664;23.610;2023-07-31T02:31:19;94998.75;;;18.83;100.00
20017;BME280;10169;42.664;23.610;2023-07-31T02:33:20;95001.16;;;18.85;100.00
20017;BME280;10169;42.664;23.610;2023-07-31T02:35:20;94996.44;;;18.77;100.00
20017;BME280;10169;42.664;23.610;2023-07-31T02:37:20;95001.50;;;18.78;100.00
20017;BME280;10169;42.664;23.610;2023-07-31T02:39:20;94999.13;;;18.77;100.00
20017;BME280;10169;42.664;23.610;2023-07-31T02:41:21;95004.91;;;18.70;100.00
20017;BME280;10169;42.664;23.610;2023-07-31T02:43:21;95011.91;;;18.71;100.00
20017;BME280;10169;42.664;23.610;2023-07-31T02:45:21;95012.41;;;18.73;100.00
20017;BME280;10169;42.664;23.610;2023-07-31T02:47:22;95011.91;;;18.71;100.00
20017;BME280;10169;42.664;23.610;2023-07-31T02:49:22;95011.09;;;18.71;100.00
20017;BME280;10169;42.664;23.610;2023-07-31T02:51:23;95008.09;;;18.72;100.00
20017;BME280;10169;42.664;23.610;2023-07-31T02:53:23;95008.91;;;18.73;100.00
20017;BME280;10169;42.664;23.610;2023-07-31T02:55:23;95011.41;;;18.69;100.00
20017;BME280;10169;42.664;23.610;2023-07-31T02:57:24;95014.97;;;18.78;100.00
20017;BME280;10169;42.664;23.610;2023-07-31T02:59:24;95015.28;;;18.77;100.00
20017;BME280;10169;42.664;23.610;2023-07-31T03:01:25;95009.09;;;18.76;100.00
20017;BME280;10169;42.664;23.610;2023-07-31T03:03:25;95010.50;;;18.88;100.00
20017;BME280;10169;42.664;23.610;2023-07-31T03:05:25;95014.09;;;18.83;100.00
20017;BME280;10169;42.664;23.610;2023-07-31T03:07:26;95010.59;;;18.69;100.00
20017;BME280;10169;42.664;23.610;2023-07-31T03:09:26;95012.97;;;18.70;100.00
20017;BME280;10169;42.664;23.610;2023-07-31T03:11:26;95017.44;;;18.61;100.00
20017;BME280;10169;42.664;23.610;2023-07-31T03:13:27;95016.06;;;18.64;100.00
20017;BME280;10169;42.664;23.610;2023-07-31T03:15:27;95022.34;;;18.59;100.00
20017;BME280;10169;42.664;23.610;2023-07-31T03:17:27;95016.38;;;18.62;100.00
20017;BME280;10169;42.664;23.610;2023-07-31T03:19:29;95013.97;;;18.61;100.00
20017;BME280;10169;42.664;23.610;2023-07-31T03:21:30;95017.84;;;18.55;100.00
20017;BME280;10169;42.664;23.610;2023-07-31T03:23:30;95026.22;;;18.53;100.00
20017;BME280;10169;42.664;23.610;2023-07-31T03:25:30;95021.50;;;18.45;100.00
20017;BME280;10169;42.664;23.610;2023-07-31T03:27:31;95021.91;;;18.52;100.00
20017;BME280;10169;42.664;23.610;2023-07-31T03:29:31;95024.91;;;18.51;100.00
20017;BME280;10169;42.664;23.610;2023-07-31T03:31:31;95030.59;;;18.49;100.00
20017;BME280;10169;42.664;23.610;2023-07-31T03:33:31;95031.59;;;18.53;100.00
20017;BME280;10169;42.664;23.610;2023-07-31T03:35:32;95033.28;;;18.63;100.00
20017;BME280;10169;42.664;23.610;2023-07-31T03:37:32;95034.59;;;18.65;100.00
20017;BME280;10169;42.664;23.610;2023-07-31T03:39:32;95041.00;;;18.69;100.00
20017;BME280;10169;42.664;23.610;2023-07-31T03:41:33;95034.31;;;18.67;100.00
20017;BME280;10169;42.664;23.610;2023-07-31T03:43:33;95047.78;;;18.67;100.00
20017;BME280;10169;42.664;23.610;2023-07-31T03:45:36;95038.00;;;18.71;100.00
20017;BME280;10169;42.664;23.610;2023-07-31T03:47:36;95045.22;;;18.75;100.00
20017;BME280;10169;42.664;23.610;2023-07-31T03:49:37;95043.91;;;18.73;100.00
20017;BME280;10169;42.664;23.610;2023-07-31T03:51:38;95045.78;;;18.72;100.00
20017;BME280;10169;42.664;23.610;2023-07-31T03:53:38;95045.22;;;18.75;100.00
20017;BME280;10169;42.664;23.610;2023-07-31T03:55:38;95050.97;;;18.69;100.00
20017;BME280;10169;42.664;23.610;2023-07-31T03:57:39;95044.06;;;18.63;100.00
20017;BME280;10169;42.664;23.610;2023-07-31T03:59:39;95057.94;;;18.70;100.00
20017;BME280;10169;42.664;23.610;2023-07-31T04:01:39;95060.66;;;18.83;100.00
20017;BME280;10169;42.664;23.610;2023-07-31T04:03:40;95061.38;;;18.89;100.00
20017;BME280;10169;42.664;23.610;2023-07-31T04:05:40;95060.56;;;18.89;100.00
20017;BME280;10169;42.664;23.610;2023-07-31T04:07:40;95058.41;;;19.04;100.00
20017;BME280;10169;42.664;23.610;2023-07-31T04:09:40;95056.44;;;19.10;100.00
20017;BME280;10169;42.664;23.610;2023-07-31T04:11:41;95056.63;;;19.13;100.00
20017;BME280;10169;42.664;23.610;2023-07-31T04:13:41;95052.94;;;19.23;100.00
20017;BME280;10169;42.664;23.610;2023-07-31T04:15:41;95063.59;;;19.28;100.00
20017;BME280;10169;42.664;23.610;2023-07-31T04:17:42;95059.41;;;19.22;100.00
20017;BME280;10169;42.664;23.610;2023-07-31T04:19:42;95060.19;;;19.09;100.00
20017;BME280;10169;42.664;23.610;2023-07-31T04:21:42;95061.69;;;19.15;100.00
20017;BME280;10169;42.664;23.610;2023-07-31T04:23:43;95052.94;;;19.23;100.00
20017;BME280;10169;42.664;23.610;2023-07-31T04:25:43;95054.63;;;19.19;100.00
20017;BME280;10169;42.664;23.610;2023-07-31T04:27:44;95060.13;;;19.27;100.00
20017;BME280;10169;42.664;23.610;2023-07-31T04:29:44;95065.63;;;19.36;100.00
20017;BME280;10169;42.664;23.610;2023-07-31T04:31:46;95060.84;;;19.46;100.00
20017;BME280;10169;42.664;23.610;2023-07-31T04:33:46;95054.94;;;19.58;100.00
20017;BME280;10169;42.664;23.610;2023-07-31T04:35:50;95054.63;;;19.60;100.00
20017;BME280;10169;42.664;23.610;2023-07-31T04:37:52;95057.63;;;19.72;100.00
20017;BME280;10169;42.664;23.610;2023-07-31T04:39:52;95049.84;;;19.70;100.00
20017;BME280;10169;42.664;23.610;2023-07-31T04:41:52;95042.34;;;19.67;100.00
20017;BME280;10169;42.664;23.610;2023-07-31T04:43:53;95040.22;;;19.78;100.00
20017;BME280;10169;42.664;23.610;2023-07-31T04:45:53;95040.94;;;19.70;100.00
20017;BME280;10169;42.664;23.610;2023-07-31T04:47:54;95037.94;;;19.71;100.00
20017;BME280;10169;42.664;23.610;2023-07-31T04:49:54;95044.25;;;19.67;100.00
20017;BME280;10169;42.664;23.610;2023-07-31T04:51:54;95042.84;;;19.69;100.00
20017;BME280;10169;42.664;23.610;2023-07-31T04:53:55;95043.91;;;19.82;100.00
20017;BME280;10169;42.664;23.610;2023-07-31T04:55:56;95049.56;;;19.94;100.00
20017;BME280;10169;42.664;23.610;2023-07-31T04:57:57;95043.44;;;20.02;100.00
20017;BME280;10169;42.664;23.610;2023-07-31T04:59:57;95036.88;;;19.94;100.00
20017;BME280;10169;42.664;23.610;2023-07-31T05:01:58;95033.81;;;19.87;100.00
20017;BME280;10169;42.664;23.610;2023-07-31T05:03:58;95038.97;;;19.97;100.00
20017;BME280;10169;42.664;23.610;2023-07-31T05:05:58;95035.06;;;20.03;100.00
20017;BME280;10169;42.664;23.610;2023-07-31T05:07:58;95035.94;;;20.12;100.00
20017;BME280;10169;42.664;23.610;2023-07-31T05:09:59;95038.41;;;20.22;100.00
20017;BME280;10169;42.664;23.610;2023-07-31T05:11:59;95033.94;;;20.40;100.00
20017;BME280;10169;42.664;23.610;2023-07-31T05:13:59;95037.22;;;20.51;100.00
20017;BME280;10169;42.664;23.610;2023-07-31T05:16:00;95034.91;;;20.66;100.00
20017;BME280;10169;42.664;23.610;2023-07-31T05:18:00;95029.69;;;20.70;100.00
20017;BME280;10169;42.664;23.610;2023-07-31T05:20:00;95020.94;;;20.64;100.00
20017;BME280;10169;42.664;23.610;2023-07-31T05:22:00;95018.31;;;20.51;100.00
20017;BME280;10169;42.664;23.610;2023-07-31T05:24:01;95024.19;;;20.53;100.00
20017;BME280;10169;42.664;23.610;2023-07-31T05:26:07;95017.44;;;20.64;100.00
20017;BME280;10169;42.664;23.610;2023-07-31T05:28:09;94998.97;;;20.57;100.00
20017;BME280;10169;42.664;23.610;2023-07-31T05:30:10;95016.03;;;20.66;100.00
20017;BME280;10169;42.664;23.610;2023-07-31T05:32:10;95015.13;;;20.79;100.00
20017;BME280;10169;42.664;23.610;2023-07-31T05:34:10;95011.31;;;20.80;100.00
20017;BME280;10169;42.664;23.610;2023-07-31T05:36:11;95012.34;;;20.62;100.00
20017;BME280;10169;42.664;23.610;2023-07-31T05:38:11;95015.56;;;20.73;100.00
20017;BME280;10169;42.664;23.610;2023-07-31T05:40:11;95013.75;;;20.60;100.00
20017;BME280;10169;42.664;23.610;2023-07-31T05:42:12;95009.38;;;20.72;100.00
20017;BME280;10169;42.664;23.610;2023-07-31T05:44:12;95012.84;;;20.64;100.00
20017;BME280;10169;42.664;23.610;2023-07-31T05:46:12;95008.16;;;20.56;100.00
20017;BME280;10169;42.664;23.610;2023-07-31T05:48:12;95010.81;;;20.78;100.00
20017;BME280;10169;42.664;23.610;2023-07-31T05:50:13;95005.81;;;20.94;100.00
20017;BME280;10169;42.664;23.610;2023-07-31T05:52:14;95001.69;;;20.96;100.00
20017;BME280;10169;42.664;23.610;2023-07-31T05:54:14;94997.25;;;21.01;100.00
20017;BME280;10169;42.664;23.610;2023-07-31T05:56:15;95005.63;;;20.82;100.00
20017;BME280;10169;42.664;23.610;2023-07-31T05:58:15;95005.16;;;20.88;100.00
20017;BME280;10169;42.664;23.610;2023-07-31T06:00:15;94992.94;;;20.91;100.00
20017;BME280;10169;42.664;23.610;2023-07-31T06:02:16;95004.41;;;20.96;100.00
20017;BME280;10169;42.664;23.610;2023-07-31T06:04:16;95006.53;;;21.08;100.00
20017;BME280;10169;42.664;23.610;2023-07-31T06:06:16;94987.50;;;21.13;100.00
20017;BME280;10169;42.664;23.610;2023-07-31T06:08:16;94988.34;;;21.31;100.00
20017;BME280;10169;42.664;23.610;2023-07-31T06:10:17;94970.56;;;21.47;100.00
20017;BME280;10169;42.664;23.610;2023-07-31T06:12:17;94982.88;;;21.79;100.00
20017;BME280;10169;42.664;23.610;2023-07-31T06:14:18;94977.03;;;21.85;100.00
20017;BME280;10169;42.664;23.610;2023-07-31T06:16:19;94967.47;;;21.88;100.00
20017;BME280;10169;42.664;23.610;2023-07-31T06:18:19;94973.84;;;21.92;100.00
20017;BME280;10169;42.664;23.610;2023-07-31T06:20:19;94980.19;;;21.96;100.00
20017;BME280;10169;42.664;23.610;2023-07-31T06:22:20;94980.19;;;22.13;100.00
20017;BME280;10169;42.664;23.610;2023-07-31T06:24:20;94980.47;;;22.46;100.00
20017;BME280;10169;42.664;23.610;2023-07-31T06:26:22;94979.19;;;22.52;100.00
20017;BME280;10169;42.664;23.610;2023-07-31T06:28:27;94970.81;;;22.19;100.00
20017;BME280;10169;42.664;23.610;2023-07-31T06:30:28;94976.53;;;22.26;100.00
20017;BME280;10169;42.664;23.610;2023-07-31T06:32:28;94977.91;;;22.49;100.00
20017;BME280;10169;42.664;23.610;2023-07-31T06:34:28;94978.06;;;22.53;100.00
20017;BME280;10169;42.664;23.610;2023-07-31T06:36:28;94972.22;;;22.16;100.00
20017;BME280;10169;42.664;23.610;2023-07-31T06:38:29;94976.69;;;21.87;100.00
20017;BME280;10169;42.664;23.610;2023-07-31T06:40:29;94979.53;;;21.90;100.00
20017;BME280;10169;42.664;23.610;2023-07-31T06:42:30;94954.22;;;22.20;100.00
20017;BME280;10169;42.664;23.610;2023-07-31T06:44:30;94975.72;;;22.08;100.00
20017;BME280;10169;42.664;23.610;2023-07-31T06:46:30;94972.72;;;22.18;100.00
20017;BME280;10169;42.664;23.610;2023-07-31T06:48:31;94978.56;;;22.29;100.00
20017;BME280;10169;42.664;23.610;2023-07-31T06:50:31;94972.97;;;22.51;100.00
20017;BME280;10169;42.664;23.610;2023-07-31T06:52:32;94978.88;;;22.62;100.00
20017;BME280;10169;42.664;23.610;2023-07-31T06:54:32;94973.91;;;22.72;100.00
20017;BME280;10169;42.664;23.610;2023-07-31T06:56:32;94963.25;;;22.67;100.00
20017;BME280;10169;42.664;23.610;2023-07-31T06:58:33;94978.28;;;22.94;100.00
20017;BME280;10169;42.664;23.610;2023-07-31T07:00:33;94970.53;;;22.75;100.00
20017;BME280;10169;42.664;23.610;2023-07-31T07:02:33;94986.50;;;22.68;100.00
20017;BME280;10169;42.664;23.610;2023-07-31T07:04:34;94980.78;;;22.61;100.00
20017;BME280;10169;42.664;23.610;2023-07-31T07:06:34;94975.03;;;22.54;100.00
20017;BME280;10169;42.664;23.610;2023-07-31T07:08:34;94977.09;;;22.57;100.00
20017;BME280;10169;42.664;23.610;2023-07-31T07:10:35;94980.19;;;22.93;100.00
20017;BME280;10169;42.664;23.610;2023-07-31T07:12:35;94981.53;;;23.17;100.00
20017;BME280;10169;42.664;23.610;2023-07-31T07:14:35;94987.97;;;23.03;100.00
20017;BME280;10169;42.664;23.610;2023-07-31T07:16:36;94980.69;;;23.33;100.00
20017;BME280;10169;42.664;23.610;2023-07-31T07:18:36;94980.44;;;23.18;100.00
20017;BME280;10169;42.664;23.610;2023-07-31T07:20:36;94976.84;;;22.96;100.00
20017;BME280;10169;42.664;23.610;2023-07-31T07:22:37;94973.78;;;23.06;100.00
20017;BME280;10169;42.664;23.610;2023-07-31T07:24:37;94983.16;;;23.18;100.00
20017;BME280;10169;42.664;23.610;2023-07-31T07:26:37;94975.47;;;23.20;100.00
20017;BME280;10169;42.664;23.610;2023-07-31T07:28:37;94977.00;;;23.38;100.00
20017;BME280;10169;42.664;23.610;2023-07-31T07:30:38;94972.69;;;22.99;100.00
20017;BME280;10169;42.664;23.610;2023-07-31T07:32:38;94975.81;;;23.09;100.00
20017;BME280;10169;42.664;23.610;2023-07-31T07:34:38;94984.03;;;23.30;100.00
20017;BME280;10169;42.664;23.610;2023-07-31T07:36:39;94973.16;;;23.39;100.00
20017;BME280;10169;42.664;23.610;2023-07-31T07:38:39;94966.66;;;23.23;100.00
20017;BME280;10169;42.664;23.610;2023-07-31T07:40:41;94973.16;;;23.39;100.00
20017;BME280;10169;42.664;23.610;2023-07-31T07:42:41;94978.59;;;23.39;100.00
20017;BME280;10169;42.664;23.610;2023-07-31T07:44:41;94983.66;;;23.69;100.00
20017;BME280;10169;42.664;23.610;2023-07-31T07:46:43;94976.97;;;23.46;100.00
20017;BME280;10169;42.664;23.610;2023-07-31T07:48:43;94975.13;;;23.59;100.00
20017;BME280;10169;42.664;23.610;2023-07-31T07:50:43;94974.56;;;24.15;100.00
20017;BME280;10169;42.664;23.610;2023-07-31T07:52:44;94966.22;;;24.20;100.00
20017;BME280;10169;42.664;23.610;2023-07-31T07:54:44;94978.06;;;24.36;100.00
20017;BME280;10169;42.664;23.610;2023-07-31T07:56:44;94998.34;;;24.18;100.00
20017;BME280;10169;42.664;23.610;2023-07-31T07:58:44;94984.56;;;24.03;100.00
20017;BME280;10169;42.664;23.610;2023-07-31T08:00:48;94987.69;;;24.13;100.00
20017;BME280;10169;42.664;23.610;2023-07-31T08:02:49;94976.41;;;23.82;100.00
20017;BME280;10169;42.664;23.610;2023-07-31T08:04:49;94986.47;;;24.02;100.00
20017;BME280;10169;42.664;23.610;2023-07-31T08:06:49;94977.78;;;23.88;100.00
20017;BME280;10169;42.664;23.610;2023-07-31T08:08:50;94979.50;;;23.72;100.00
20017;BME280;10169;42.664;23.610;2023-07-31T08:10:50;94977.28;;;24.15;100.00
20017;BME280;10169;42.664;23.610;2023-07-31T08:12:50;94960.78;;;24.00;100.00
20017;BME280;10169;42.664;23.610;2023-07-31T08:14:51;94982.84;;;23.98;100.00
20017;BME280;10169;42.664;23.610;2023-07-31T08:16:52;94970.53;;;24.54;100.00
20017;BME280;10169;42.664;23.610;2023-07-31T08:18:52;94968.56;;;24.42;100.00
20017;BME280;10169;42.664;23.610;2023-07-31T08:20:52;94964.69;;;24.31;100.00
20017;BME280;10169;42.664;23.610;2023-07-31T08:22:52;94972.19;;;24.14;100.00
20017;BME280;10169;42.664;23.610;2023-07-31T08:24:53;94974.41;;;24.32;100.00
20017;BME280;10169;42.664;23.610;2023-07-31T08:26:53;94968.44;;;24.39;100.00
20017;BME280;10169;42.664;23.610;2023-07-31T08:28:53;94971.25;;;23.89;100.00
20017;BME280;10169;42.664;23.610;2023-07-31T08:30:54;94980.13;;;24.19;100.00
20017;BME280;10169;42.664;23.610;2023-07-31T08:32:54;94980.78;;;23.95;100.00
20017;BME280;10169;42.664;23.610;2023-07-31T08:34:54;94978.47;;;23.85;100.00
20017;BME280;10169;42.664;23.610;2023-07-31T08:36:55;94980.91;;;23.78;100.00
20017;BME280;10169;42.664;23.610;2023-07-31T08:38:55;94979.09;;;24.11;100.00
20017;BME280;10169;42.664;23.610;2023-07-31T08:40:58;94972.88;;;23.82;100.00
20017;BME280;10169;42.664;23.610;2023-07-31T08:42:58;94979.13;;;23.82;100.00
20017;BME280;10169;42.664;23.610;2023-07-31T08:45:02;94972.16;;;23.93;100.00
20017;BME280;10169;42.664;23.610;2023-07-31T08:47:03;94974.69;;;24.19;100.00
20017;BME280;10169;42.664;23.610;2023-07-31T08:49:04;94969.19;;;24.27;100.00
20017;BME280;10169;42.664;23.610;2023-07-31T08:51:08;94972.13;;;24.22;100.00
20017;BME280;10169;42.664;23.610;2023-07-31T08:53:09;94963.97;;;24.55;100.00
20017;BME280;10169;42.664;23.610;2023-07-31T08:55:09;94966.53;;;24.72;100.00
20017;BME280;10169;42.664;23.610;2023-07-31T08:57:10;94974.81;;;24.76;100.00
20017;BME280;10169;42.664;23.610;2023-07-31T08:59:11;94972.09;;;24.76;100.00
20017;BME280;10169;42.664;23.610;2023-07-31T09:01:13;94977.63;;;24.46;100.00
20017;BME280;10169;42.664;23.610;2023-07-31T09:03:14;94971.44;;;24.58;100.00
20017;BME280;10169;42.664;23.610;2023-07-31T09:05:15;94965.91;;;24.67;100.00
20017;BME280;10169;42.664;23.610;2023-07-31T09:07:16;94960.47;;;24.55;100.00
20017;BME280;10169;42.664;23.610;2023-07-31T09:09:17;94967.53;;;24.35;100.00
20017;BME280;10169;42.664;23.610;2023-07-31T09:11:17;94961.97;;;24.31;100.00
20017;BME280;10169;42.664;23.610;2023-07-31T09:13:17;94969.25;;;24.72;100.00
20017;BME280;10169;42.664;23.610;2023-07-31T09:15:18;94970.56;;;24.99;100.00
20017;BME280;10169;42.664;23.610;2023-07-31T09:17:31;94967.00;;;24.86;100.00
20017;BME280;10169;42.664;23.610;2023-07-31T09:19:32;94968.88;;;24.74;100.00
20017;BME280;10169;42.664;23.610;2023-07-31T09:21:34;94971.16;;;24.72;100.00
20017;BME280;10169;42.664;23.610;2023-07-31T09:23:47;94966.47;;;25.05;100.00
20017;BME280;10169;42.664;23.610;2023-07-31T09:25:57;94967.06;;;25.10;100.00
20017;BME280;10169;42.664;23.610;2023-07-31T09:27:58;94963.88;;;25.08;100.00
20017;BME280;10169;42.664;23.610;2023-07-31T09:29:59;94962.88;;;25.25;100.00
20017;BME280;10169;42.664;23.610;2023-07-31T09:31:59;94960.38;;;25.08;100.00
20017;BME280;10169;42.664;23.610;2023-07-31T09:34:00;94957.53;;;25.04;100.00
20017;BME280;10169;42.664;23.610;2023-07-31T09:36:00;94957.00;;;25.47;100.00
20017;BME280;10169;42.664;23.610;2023-07-31T09:38:03;94948.69;;;25.80;100.00
20017;BME280;10169;42.664;23.610;2023-07-31T09:40:04;94945.53;;;26.06;97.48
20017;BME280;10169;42.664;23.610;2023-07-31T09:42:04;94951.06;;;25.81;99.85
20017;BME280;10169;42.664;23.610;2023-07-31T09:44:05;94957.38;;;25.98;100.00
20017;BME280;10169;42.664;23.610;2023-07-31T09:46:05;94949.75;;;26.43;98.60
20017;BME280;10169;42.664;23.610;2023-07-31T09:48:14;94952.72;;;26.38;98.57
20017;BME280;10169;42.664;23.610;2023-07-31T09:50:16;94948.59;;;26.44;92.82
20017;BME280;10169;42.664;23.610;2023-07-31T09:52:16;94940.56;;;26.63;94.32
20017;BME280;10169;42.664;23.610;2023-07-31T09:54:16;94939.47;;;27.11;95.88
20017;BME280;10169;42.664;23.610;2023-07-31T09:56:17;94942.13;;;26.64;92.19
20017;BME280;10169;42.664;23.610;2023-07-31T09:58:20;94925.44;;;26.22;93.14
20017;BME280;10169;42.664;23.610;2023-07-31T10:00:21;94941.41;;;25.84;95.85
20017;BME280;10169;42.664;23.610;2023-07-31T10:02:25;94940.34;;;25.49;99.74
20017;BME280;10169;42.664;23.610;2023-07-31T10:04:27;94937.94;;;25.35;100.00
20017;BME280;10169;42.664;23.610;2023-07-31T10:06:27;94947.66;;;25.36;100.00
20017;BME280;10169;42.664;23.610;2023-07-31T10:08:29;94941.13;;;25.37;99.65
20017;BME280;10169;42.664;23.610;2023-07-31T10:10:30;94941.25;;;25.53;98.68
20017;BME280;10169;42.664;23.610;2023-07-31T10:12:31;94927.06;;;26.11;98.89
20017;BME280;10169;42.664;23.610;2023-07-31T10:14:32;94933.47;;;26.46;98.21
20017;BME280;10169;42.664;23.610;2023-07-31T10:16:32;94934.41;;;26.23;92.46
20017;BME280;10169;42.664;23.610;2023-07-31T10:18:34;94903.59;;;25.95;97.22
20017;BME280;10169;42.664;23.610;2023-07-31T10:20:35;94935.44;;;26.18;95.38
20017;BME280;10169;42.664;23.610;2023-07-31T10:22:35;94927.09;;;26.27;93.51
20017;BME280;10169;42.664;23.610;2023-07-31T10:24:36;94924.75;;;26.84;91.81
20017;BME280;10169;42.664;23.610;2023-07-31T10:26:37;94931.81;;;26.85;84.43
20017;BME280;10169;42.664;23.610;2023-07-31T10:28:39;94935.03;;;27.53;87.26